Time;durP1;ratioP1;P1;durP2;ratioP2;P2;SDS_P1;SDS_P2;PMS_P1;PMS_P2;Temp;Humidity;BMP_temperature;BMP_pressure;BME280_temperature;BME280_humidity;BME280_pressure;Samples;Min_cycle;Max_cycle;Signal;HPM_P1;HPM_P2
2022/05/07 00:00:44;;;;;;;7.70;5.33;;;12.10;99.90;;;;;;4988797;28;20205;-73
2022/05/07 00:03:11;;;;;;;11.87;5.87;;;12.00;99.90;;;;;;4994193;28;20233;-73
2022/05/07 00:05:38;;;;;;;8.13;5.43;;;12.00;99.90;;;;;;4994128;28;20595;-73
2022/05/07 00:08:05;;;;;;;10.50;6.17;;;12.00;99.90;;;;;;4994476;28;20208;-73
2022/05/07 00:10:32;;;;;;;10.27;5.70;;;12.00;99.90;;;;;;4993152;28;20300;-73
2022/05/07 00:12:59;;;;;;;9.30;5.67;;;12.10;99.90;;;;;;4994391;28;20699;-73
2022/05/07 00:15:26;;;;;;;9.90;5.97;;;12.10;99.90;;;;;;4992866;28;20544;-73
2022/05/07 00:20:30;;;;;;;8.40;5.83;;;11.80;99.90;;;;;;4992851;28;20192;-73
2022/05/07 00:22:58;;;;;;;8.70;5.60;;;11.90;99.90;;;;;;4993731;28;20600;-73
2022/05/07 00:25:25;;;;;;;11.87;6.37;;;11.60;99.90;;;;;;4993873;28;20214;-73
2022/05/07 00:27:52;;;;;;;11.03;5.83;;;11.70;99.90;;;;;;4992978;28;20201;-73
2022/05/07 00:30:19;;;;;;;7.83;5.60;;;11.80;99.90;;;;;;4992180;28;20209;-73
2022/05/07 00:32:46;;;;;;;9.93;5.80;;;11.90;99.90;;;;;;4994072;28;20205;-73
2022/05/07 00:35:14;;;;;;;9.30;5.50;;;11.80;99.90;;;;;;4993559;28;20216;-73
2022/05/07 00:37:41;;;;;;;8.57;5.50;;;11.80;99.90;;;;;;4992510;28;20467;-73
2022/05/07 00:40:09;;;;;;;8.13;5.90;;;11.80;99.90;;;;;;4993019;28;20244;-73
2022/05/07 00:42:36;;;;;;;8.17;5.70;;;11.70;99.90;;;;;;4993049;28;20283;-73
2022/05/07 00:45:04;;;;;;;9.93;5.40;;;11.70;99.90;;;;;;4992742;28;20209;-73
2022/05/07 00:47:32;;;;;;;8.33;5.40;;;11.70;99.90;;;;;;4993067;28;20201;-73
2022/05/07 00:51:33;;;;;;;11.37;5.60;;;11.60;99.90;;;;;;4992874;28;20208;-73
2022/05/07 00:52:57;;;;;;;8.50;5.47;;;11.60;99.90;;;;;;4991880;28;20201;-73
2022/05/07 00:55:26;;;;;;;11.53;5.97;;;11.50;99.90;;;;;;4993409;28;20209;-73
2022/05/07 00:57:55;;;;;;;9.33;5.37;;;11.50;99.90;;;;;;4992581;28;20209;-68
2022/05/07 01:00:22;;;;;;;9.47;6.43;;;11.60;99.90;;;;;;4992343;28;20213;-68
2022/05/07 01:02:49;;;;;;;8.97;5.77;;;11.60;99.90;;;;;;4992192;28;20225;-68
2022/05/07 01:05:16;;;;;;;7.90;5.60;;;11.70;99.90;;;;;;4993634;28;20212;-68
2022/05/07 01:07:45;;;;;;;12.87;5.80;;;11.60;99.90;;;;;;4991613;28;20201;-68
2022/05/07 01:10:14;;;;;;;6.90;4.83;;;11.70;99.90;;;;;;4992913;28;20578;-68
2022/05/07 01:12:42;;;;;;;7.67;5.50;;;11.60;99.90;;;;;;4992811;28;20213;-68
2022/05/07 01:15:09;;;;;;;6.90;5.03;;;11.50;99.90;;;;;;4992529;28;20205;-68
2022/05/07 01:17:36;;;;;;;8.43;5.40;;;11.60;99.90;;;;;;4992591;28;20211;-68
2022/05/07 01:20:05;;;;;;;6.83;5.13;;;11.50;99.90;;;;;;4992629;28;20194;-68
2022/05/07 01:22:34;;;;;;;8.77;5.20;;;11.50;99.90;;;;;;4992479;28;20545;-68
2022/05/07 01:25:03;;;;;;;6.97;5.57;;;11.30;99.90;;;;;;4992456;28;20220;-68
2022/05/07 01:27:30;;;;;;;9.40;5.40;;;11.10;99.90;;;;;;4992409;28;20296;-68
2022/05/07 01:29:57;;;;;;;10.43;5.87;;;11.20;99.90;;;;;;4992078;28;20558;-68
2022/05/07 01:32:24;;;;;;;9.70;5.53;;;11.20;99.90;;;;;;4992558;28;20280;-68
2022/05/07 01:34:51;;;;;;;8.57;5.67;;;11.20;99.90;;;;;;4992567;28;20201;-68
2022/05/07 01:37:18;;;;;;;7.93;5.23;;;11.20;99.90;;;;;;4991756;28;20204;-68
2022/05/07 01:39:47;;;;;;;8.23;5.20;;;11.20;99.90;;;;;;4991853;28;20217;-68
2022/05/07 01:42:13;;;;;;;8.83;5.50;;;11.10;99.90;;;;;;4995667;28;20205;-68
2022/05/07 01:44:40;;;;;;;7.33;5.20;;;11.10;99.90;;;;;;4996178;28;20200;-68
2022/05/07 01:49:52;;;;;;;6.93;5.27;;;10.90;99.90;;;;;;4995984;28;20583;-68
2022/05/07 01:52:19;;;;;;;8.97;5.70;;;10.80;99.90;;;;;;4996483;28;20200;-68
2022/05/07 01:54:47;;;;;;;6.70;5.23;;;10.90;99.90;;;;;;4996043;28;20205;-68
2022/05/07 01:57:14;;;;;;;9.17;5.73;;;10.80;99.90;;;;;;4996135;28;20211;-68
2022/05/07 01:59:41;;;;;;;9.33;5.50;;;10.70;99.90;;;;;;4995941;28;20291;-68
2022/05/07 02:02:08;;;;;;;10.23;5.80;;;10.90;99.90;;;;;;4996244;28;20205;-68
2022/05/07 02:04:35;;;;;;;7.33;6.10;;;11.00;99.90;;;;;;4996600;28;20674;-68
2022/05/07 02:07:02;;;;;;;8.47;5.20;;;11.00;99.90;;;;;;4995991;28;20208;-68
2022/05/07 02:09:29;;;;;;;8.53;5.80;;;10.90;99.90;;;;;;4995262;28;20672;-68
2022/05/07 02:11:57;;;;;;;7.70;5.40;;;10.90;99.90;;;;;;4995962;28;20309;-69
2022/05/07 02:14:24;;;;;;;7.47;5.70;;;10.90;99.90;;;;;;4995468;28;20220;-68
2022/05/07 02:16:51;;;;;;;7.67;5.60;;;11.00;99.90;;;;;;4996273;28;20208;-68
2022/05/07 02:19:18;;;;;;;8.40;5.83;;;11.10;99.90;;;;;;4995354;28;20208;-68
2022/05/07 02:21:45;;;;;;;8.53;6.00;;;11.10;99.90;;;;;;4995518;28;20207;-68
2022/05/07 02:24:12;;;;;;;8.97;5.87;;;11.10;99.90;;;;;;4995125;28;20225;-68
2022/05/07 02:26:39;;;;;;;7.60;5.63;;;11.10;99.90;;;;;;4995744;28;20216;-68
2022/05/07 02:29:07;;;;;;;9.33;5.57;;;11.10;99.90;;;;;;4994410;28;20300;-68
2022/05/07 02:31:34;;;;;;;8.00;5.30;;;11.10;99.90;;;;;;4989947;28;20228;-68
2022/05/07 02:34:00;;;;;;;11.67;5.87;;;11.10;99.90;;;;;;4995960;28;20208;-68
2022/05/07 02:36:27;;;;;;;8.00;5.30;;;11.10;99.90;;;;;;4995580;28;20578;-68
2022/05/07 02:38:54;;;;;;;9.57;5.57;;;11.20;99.90;;;;;;4994716;28;20209;-68
2022/05/07 02:44:04;;;;;;;7.27;5.90;;;11.20;99.90;;;;;;4972605;28;20232;-68
2022/05/07 02:46:32;;;;;;;7.80;5.50;;;11.30;99.90;;;;;;4995561;28;20201;-68
2022/05/07 02:48:59;;;;;;;11.53;5.60;;;11.20;99.90;;;;;;4994921;28;20574;-68
2022/05/07 02:51:25;;;;;;;9.77;5.40;;;11.20;99.90;;;;;;4994895;28;20203;-68
2022/05/07 02:53:52;;;;;;;8.10;5.77;;;11.10;99.90;;;;;;4994017;28;20209;-68
2022/05/07 02:56:19;;;;;;;8.67;5.50;;;11.20;99.90;;;;;;4997721;28;20205;-68
2022/05/07 02:58:46;;;;;;;7.13;5.70;;;11.20;99.90;;;;;;4999758;28;20568;-68
2022/05/07 03:01:13;;;;;;;6.37;5.30;;;11.20;99.90;;;;;;4994946;28;20205;-68
2022/05/07 03:03:41;;;;;;;7.07;5.60;;;11.10;99.90;;;;;;4995202;28;20224;-68
2022/05/07 03:06:08;;;;;;;8.67;5.60;;;11.10;99.90;;;;;;4990780;28;20205;-68
2022/05/07 03:08:34;;;;;;;9.57;5.83;;;11.10;99.90;;;;;;4994475;28;20212;-68
2022/05/07 03:11:01;;;;;;;11.43;5.87;;;11.10;99.90;;;;;;5002213;28;20202;-68
2022/05/07 03:13:28;;;;;;;9.90;5.83;;;11.20;99.90;;;;;;5011277;28;20201;-68
2022/05/07 03:15:55;;;;;;;8.90;6.03;;;11.20;99.90;;;;;;5001454;28;20209;-68
2022/05/07 03:18:22;;;;;;;9.40;5.97;;;11.10;99.90;;;;;;4995118;28;20208;-68
2022/05/07 03:20:50;;;;;;;11.13;5.53;;;11.10;99.90;;;;;;4994164;28;20205;-68
2022/05/07 03:23:17;;;;;;;7.20;5.33;;;11.20;99.90;;;;;;4994557;28;20225;-68
2022/05/07 03:25:45;;;;;;;8.97;5.70;;;11.10;99.90;;;;;;4994437;28;20263;-68
2022/05/07 03:28:12;;;;;;;9.40;5.70;;;11.20;99.90;;;;;;4994262;28;20577;-69
2022/05/07 03:30:39;;;;;;;8.77;5.47;;;11.20;99.90;;;;;;4993660;28;20291;-68
2022/05/07 03:33:06;;;;;;;8.37;5.67;;;11.20;99.90;;;;;;4994793;28;20582;-68
2022/05/07 03:35:33;;;;;;;9.07;5.83;;;11.10;99.90;;;;;;4994090;28;20216;-68
2022/05/07 03:38:01;;;;;;;7.57;5.80;;;11.00;99.90;;;;;;4994207;28;20565;-68
2022/05/07 03:40:28;;;;;;;8.30;5.70;;;11.10;99.90;;;;;;4993959;28;20700;-68
2022/05/07 03:42:55;;;;;;;10.20;6.30;;;11.10;99.90;;;;;;4994118;28;20300;-68
2022/05/07 03:45:23;;;;;;;8.90;5.47;;;11.10;99.90;;;;;;4994291;28;20209;-68
2022/05/07 03:47:50;;;;;;;8.20;5.23;;;11.00;99.90;;;;;;4993881;28;20201;-68
2022/05/07 03:50:17;;;;;;;9.60;5.70;;;11.00;99.90;;;;;;4994162;28;20315;-68
2022/05/07 03:55:29;;;;;;;10.53;5.77;;;11.20;99.90;;;;;;4994115;28;20211;-68
2022/05/07 03:57:56;;;;;;;6.93;5.60;;;11.10;99.90;;;;;;4992338;28;20642;-68
2022/05/07 04:00:24;;;;;;;8.07;6.10;;;11.00;99.90;;;;;;4993169;28;20682;-68
2022/05/07 04:02:51;;;;;;;10.30;5.77;;;11.00;99.90;;;;;;4993670;28;20207;-68
2022/05/07 04:05:17;;;;;;;9.33;5.27;;;11.10;99.90;;;;;;4993515;28;20209;-68
2022/05/07 04:07:44;;;;;;;8.70;5.70;;;11.10;99.90;;;;;;4993701;28;20215;-68
2022/05/07 04:10:11;;;;;;;7.37;5.63;;;11.10;99.90;;;;;;4993136;28;20256;-68
2022/05/07 04:12:46;;;;;;;6.63;5.20;;;11.10;99.90;;;;;;4993507;28;20653;-68
2022/05/07 04:15:13;;;;;;;8.03;5.30;;;11.10;99.90;;;;;;4993492;28;20209;-68
2022/05/07 04:17:40;;;;;;;8.17;5.67;;;11.10;99.90;;;;;;4993831;28;20204;-68
2022/05/07 04:20:09;;;;;;;8.53;5.57;;;11.10;99.90;;;;;;4993093;28;20568;-68
2022/05/07 04:22:36;;;;;;;10.77;5.80;;;11.20;99.90;;;;;;4993594;28;20244;-68
2022/05/07 04:25:03;;;;;;;7.17;5.47;;;11.20;99.90;;;;;;4993806;28;20228;-68
2022/05/07 04:27:30;;;;;;;7.73;5.20;;;11.30;99.90;;;;;;4992886;28;20193;-68
2022/05/07 04:29:58;;;;;;;10.90;6.10;;;10.80;99.90;;;;;;4992681;28;20216;-68
2022/05/07 04:32:25;;;;;;;8.57;5.47;;;11.00;99.90;;;;;;4993636;28;20201;-68
2022/05/07 04:34:52;;;;;;;10.00;6.17;;;11.10;99.90;;;;;;4993399;28;20539;-68
2022/05/07 04:37:19;;;;;;;8.97;5.57;;;11.20;99.90;;;;;;4993515;28;20563;-68
2022/05/07 04:39:47;;;;;;;8.57;5.30;;;11.30;99.90;;;;;;4992942;28;20633;-68
2022/05/07 04:42:14;;;;;;;8.43;5.57;;;11.50;99.90;;;;;;4993428;28;20263;-68
2022/05/07 04:44:41;;;;;;;10.87;5.60;;;11.90;99.90;;;;;;4992344;28;20691;-68
2022/05/07 04:47:09;;;;;;;8.57;5.70;;;12.20;99.90;;;;;;4993349;28;20205;-68
2022/05/07 04:49:36;;;;;;;10.10;5.73;;;12.50;99.90;;;;;;4992508;28;20209;-68
2022/05/07 04:52:05;;;;;;;12.30;6.33;;;12.70;99.90;;;;;;4993072;28;20667;-68
2022/05/07 04:54:33;;;;;;;8.67;5.67;;;12.70;99.90;;;;;;4992458;28;20466;-68
2022/05/07 04:57:00;;;;;;;7.83;5.43;;;13.20;99.90;;;;;;4992003;28;20568;-68
2022/05/07 04:59:27;;;;;;;8.60;6.10;;;13.40;99.90;;;;;;4991635;28;20211;-68
2022/05/07 05:01:54;;;;;;;10.70;5.20;;;13.70;99.90;;;;;;4992949;28;20598;-68
2022/05/07 05:04:22;;;;;;;8.50;5.17;;;14.10;99.90;;;;;;4992195;28;20224;-68
2022/05/07 05:06:49;;;;;;;6.77;5.30;;;14.00;99.90;;;;;;4992348;28;20205;-68
2022/05/07 05:09:16;;;;;;;6.90;4.90;;;14.50;99.90;;;;;;4991773;28;20652;-68
2022/05/07 05:11:43;;;;;;;9.63;5.60;;;14.10;99.90;;;;;;4992226;28;20200;-68
2022/05/07 05:16:50;;;;;;;7.90;5.17;;;14.60;95.70;;;;;;4991484;28;20207;-68
2022/05/07 05:19:17;;;;;;;6.73;4.90;;;14.10;96.90;;;;;;4992035;28;20213;-68
2022/05/07 05:21:46;;;;;;;9.30;6.00;;;13.50;99.90;;;;;;4992143;28;20861;-68
2022/05/07 05:24:13;;;;;;;7.57;5.40;;;13.40;99.90;;;;;;4991469;28;20221;-68
2022/05/07 05:26:40;;;;;;;7.47;5.47;;;13.50;99.90;;;;;;4992948;28;20243;-68
2022/05/07 05:29:06;;;;;;;9.27;5.67;;;13.30;99.90;;;;;;4990686;28;20197;-68
2022/05/07 05:31:34;;;;;;;11.47;5.90;;;13.20;99.90;;;;;;4992554;28;20205;-68
2022/05/07 05:34:01;;;;;;;8.50;5.70;;;13.30;99.90;;;;;;4991707;28;20205;-68
2022/05/07 05:36:28;;;;;;;7.77;5.33;;;13.30;99.90;;;;;;4994030;28;20197;-68
2022/05/07 05:38:56;;;;;;;9.40;6.00;;;13.20;99.90;;;;;;5001703;28;20210;-68
2022/05/07 05:41:23;;;;;;;8.57;5.50;;;13.30;99.90;;;;;;4992664;28;20513;-68
2022/05/07 05:43:49;;;;;;;9.10;6.07;;;13.30;99.90;;;;;;4991617;28;20208;-68
2022/05/07 05:46:16;;;;;;;7.93;5.77;;;13.30;99.90;;;;;;4992727;28;20212;-68
2022/05/07 05:48:43;;;;;;;9.40;5.57;;;13.30;99.90;;;;;;4990356;28;20205;-68
2022/05/07 05:51:10;;;;;;;9.30;6.27;;;13.40;99.90;;;;;;4987126;28;20201;-68
2022/05/07 05:53:37;;;;;;;8.53;5.67;;;13.50;99.90;;;;;;4991071;28;20211;-68
2022/05/07 05:56:05;;;;;;;8.27;6.13;;;13.60;99.90;;;;;;4990753;28;20207;-68
2022/05/07 05:58:33;;;;;;;9.20;6.57;;;13.70;99.90;;;;;;4990554;28;20256;-68
2022/05/07 06:01:01;;;;;;;8.30;5.67;;;13.80;99.90;;;;;;4992242;28;20644;-68
2022/05/07 06:03:27;;;;;;;8.97;5.90;;;13.80;99.90;;;;;;4992311;28;20627;-68
2022/05/07 06:05:54;;;;;;;6.73;5.80;;;13.90;99.90;;;;;;4992610;28;20547;-68
2022/05/07 06:08:21;;;;;;;9.10;6.40;;;14.20;99.90;;;;;;4991412;28;20209;-68
2022/05/07 06:10:52;;;;;;;8.47;6.07;;;14.60;99.90;;;;;;4992264;28;20209;-68
2022/05/07 06:13:20;;;;;;;8.40;6.07;;;14.70;99.90;;;;;;4991896;28;20200;-68
2022/05/07 06:15:51;;;;;;;11.13;6.70;;;14.90;99.90;;;;;;4989651;28;20204;-68
2022/05/07 06:18:18;;;;;;;9.13;6.30;;;15.40;99.90;;;;;;4992627;28;20204;-68
2022/05/07 06:20:45;;;;;;;11.50;7.10;;;16.00;99.90;;;;;;4991052;28;20209;-68
2022/05/07 06:23:12;;;;;;;9.30;6.80;;;15.90;99.10;;;;;;4985763;28;20556;-69
2022/05/07 06:28:25;;;;;;;11.33;7.40;;;15.50;96.70;;;;;;4978955;28;20236;-68
2022/05/07 06:30:52;;;;;;;9.03;6.73;;;15.70;96.00;;;;;;4991134;28;20213;-68
2022/05/07 06:33:20;;;;;;;11.53;7.50;;;15.70;98.10;;;;;;4982275;28;20201;-68
2022/05/07 06:35:47;;;;;;;10.93;7.53;;;15.80;98.20;;;;;;4995009;28;20718;-68
2022/05/07 06:38:16;;;;;;;10.80;7.43;;;15.70;99.40;;;;;;4998856;28;20217;-68
2022/05/07 06:40:43;;;;;;;13.47;7.30;;;15.90;99.90;;;;;;4994516;28;20617;-68
2022/05/07 06:43:11;;;;;;;11.18;7.32;;;16.00;99.90;;;;;;4992805;28;20201;-68
2022/05/07 06:45:40;;;;;;;9.87;7.20;;;16.20;99.90;;;;;;4993940;28;20221;-68
2022/05/07 06:48:11;;;;;;;11.15;6.57;;;16.40;96.50;;;;;;4989646;28;20200;-68
2022/05/07 06:50:39;;;;;;;11.18;6.70;;;16.50;95.60;;;;;;4983916;28;20655;-69
2022/05/07 06:53:06;;;;;;;12.27;7.73;;;16.60;94.20;;;;;;4984980;28;20660;-68
2022/05/07 06:55:33;;;;;;;10.00;6.93;;;16.60;88.80;;;;;;4990011;28;20216;-68
2022/05/07 06:58:00;;;;;;;9.02;6.75;;;16.60;87.50;;;;;;4986897;28;20236;-68
2022/05/07 07:00:27;;;;;;;10.33;7.43;;;16.60;86.50;;;;;;4985298;28;20217;-68
2022/05/07 07:02:55;;;;;;;14.65;7.70;;;16.60;87.70;;;;;;4983462;28;20281;-68
2022/05/07 07:05:22;;;;;;;11.50;7.47;;;16.50;85.40;;;;;;4984102;28;20221;-68
2022/05/07 07:07:49;;;;;;;9.73;7.03;;;16.70;82.80;;;;;;4984641;28;20213;-70
2022/05/07 07:10:16;;;;;;;10.63;8.20;;;16.90;83.40;;;;;;4989279;28;20650;-68
2022/05/07 07:12:43;;;;;;;9.60;6.97;;;16.90;81.10;;;;;;4989058;28;20208;-68
2022/05/07 07:15:10;;;;;;;14.18;7.72;;;17.10;79.70;;;;;;4989636;28;20236;-68
2022/05/07 07:17:37;;;;;;;9.45;7.00;;;17.20;77.20;;;;;;4989700;28;20228;-68
2022/05/07 07:20:06;;;;;;;11.95;7.60;;;17.30;77.10;;;;;;4985752;28;20213;-68
2022/05/07 07:22:33;;;;;;;10.70;7.15;;;17.10;76.10;;;;;;4991451;28;20212;-68
2022/05/07 07:25:00;;;;;;;10.45;7.32;;;17.20;77.50;;;;;;4986459;28;20224;-68
2022/05/07 07:27:27;;;;;;;10.43;7.43;;;17.10;78.80;;;;;;4991493;28;20240;-68
2022/05/07 07:29:54;;;;;;;12.07;7.05;;;17.20;78.50;;;;;;4993465;28;20212;-68
2022/05/07 07:32:21;;;;;;;11.43;8.18;;;17.20;73.50;;;;;;4994577;28;20197;-68
2022/05/07 07:34:48;;;;;;;11.55;7.35;;;17.40;73.90;;;;;;4988475;28;20289;-68
2022/05/07 07:37:16;;;;;;;10.10;7.10;;;17.80;74.20;;;;;;4986929;28;20246;-68
2022/05/07 07:39:43;;;;;;;12.10;7.68;;;17.90;72.20;;;;;;4992303;28;20708;-68
2022/05/07 07:42:10;;;;;;;12.82;7.70;;;17.90;66.50;;;;;;4993646;28;20224;-68
2022/05/07 07:44:37;;;;;;;9.13;7.20;;;17.80;69.10;;;;;;4993102;28;20232;-67
2022/05/07 07:49:49;;;;;;;10.30;7.40;;;17.90;69.70;;;;;;4991593;28;20212;-67
2022/05/07 07:52:18;;;;;;;14.90;7.45;;;18.10;67.90;;;;;;4993037;28;20205;-67
2022/05/07 07:54:45;;;;;;;10.10;7.70;;;18.10;67.60;;;;;;4997280;28;20205;-67
2022/05/07 07:57:12;;;;;;;15.68;7.03;;;18.40;66.40;;;;;;4998712;28;20206;-67
2022/05/07 07:59:40;;;;;;;10.32;7.55;;;18.50;66.10;;;;;;4982386;28;20244;-67
2022/05/07 08:02:07;;;;;;;10.98;7.70;;;18.50;61.60;;;;;;4992305;28;20234;-67
2022/05/07 08:04:34;;;;;;;12.38;7.80;;;18.60;61.80;;;;;;4991496;28;20276;-67
2022/05/07 08:12:31;;;;;;;8.95;7.15;;;18.90;61.70;;;;;;4990454;28;20211;-67
2022/05/07 08:14:58;;;;;;;10.35;7.40;;;19.00;60.00;;;;;;4992546;28;20204;-67
2022/05/07 08:17:25;;;;;;;10.90;8.02;;;18.90;60.00;;;;;;4992297;28;20648;-67
2022/05/07 08:19:52;;;;;;;11.70;7.63;;;19.00;58.20;;;;;;4991696;28;20209;-67
2022/05/07 08:22:19;;;;;;;10.38;7.40;;;18.90;56.50;;;;;;4993009;28;20251;-67
2022/05/07 08:24:47;;;;;;;12.57;8.48;;;19.10;58.80;;;;;;4991179;28;20307;-67
2022/05/07 08:27:14;;;;;;;11.38;8.02;;;19.20;55.30;;;;;;4990663;28;20232;-68
2022/05/07 08:29:41;;;;;;;10.98;7.40;;;19.30;57.50;;;;;;4981305;28;20201;-67
2022/05/07 08:32:09;;;;;;;10.88;8.18;;;19.60;55.70;;;;;;4986816;28;20209;-67
2022/05/07 08:34:37;;;;;;;13.13;8.07;;;19.20;54.80;;;;;;4987833;28;20236;-67
2022/05/07 08:37:04;;;;;;;10.07;7.80;;;19.40;55.80;;;;;;4983388;28;20201;-67
2022/05/07 08:39:31;;;;;;;12.88;8.07;;;19.60;54.70;;;;;;4987259;28;20248;-67
2022/05/07 08:42:00;;;;;;;11.93;8.10;;;19.80;53.70;;;;;;4987771;28;20260;-67
2022/05/07 08:44:27;;;;;;;12.13;9.20;;;20.10;55.40;;;;;;4987498;28;20206;-67
2022/05/07 08:46:54;;;;;;;12.95;8.43;;;20.20;50.80;;;;;;4988778;28;20601;-67
2022/05/07 08:49:21;;;;;;;10.57;8.05;;;20.50;48.30;;;;;;4977672;28;20656;-67
2022/05/07 08:51:49;;;;;;;14.65;8.50;;;20.60;46.70;;;;;;4986345;28;20209;-67
2022/05/07 08:54:17;;;;;;;11.88;8.75;;;20.70;44.50;;;;;;4989984;28;20237;-67
2022/05/07 08:56:44;;;;;;;13.10;8.27;;;21.20;46.70;;;;;;4992668;28;20201;-67
2022/05/07 08:59:13;;;;;;;13.30;8.55;;;21.10;43.20;;;;;;4989611;28;20730;-67
2022/05/07 09:01:42;;;;;;;11.80;8.82;;;21.20;41.10;;;;;;4987589;28;20217;-67
2022/05/07 09:04:10;;;;;;;12.27;8.85;;;21.40;39.70;;;;;;4989239;28;20220;-68
2022/05/07 09:06:38;;;;;;;11.38;8.38;;;21.40;32.00;;;;;;4991187;28;20224;-67
2022/05/07 09:09:06;;;;;;;13.38;8.55;;;21.80;29.60;;;;;;4988073;28;20295;-67
2022/05/07 09:11:42;;;;;;;12.10;8.93;;;22.10;30.50;;;;;;4988743;28;20722;-67
2022/05/07 09:14:09;;;;;;;12.32;8.65;;;22.40;32.00;;;;;;4986530;28;20566;-67
2022/05/07 09:16:43;;;;;;;12.07;8.20;;;22.60;31.10;;;;;;4990639;28;20256;-67
2022/05/07 09:19:21;;;;;;;13.10;8.68;;;22.50;29.60;;;;;;4988476;28;20213;-67
2022/05/07 09:21:48;;;;;;;10.55;8.05;;;22.70;27.20;;;;;;4985944;28;20212;-67
2022/05/07 09:24:15;;;;;;;15.57;8.32;;;22.80;26.20;;;;;;4991695;28;20259;-68
2022/05/07 09:26:44;;;;;;;12.93;8.50;;;23.30;25.00;;;;;;4990715;28;20228;-67
2022/05/07 09:29:12;;;;;;;9.48;7.70;;;23.20;22.20;;;;;;4990735;28;20651;-67
2022/05/07 09:31:43;;;;;;;12.30;8.02;;;23.40;20.50;;;;;;4988699;28;20197;-68
2022/05/07 09:36:59;;;;;;;10.80;7.53;;;23.50;17.10;;;;;;4979987;28;20205;-67
2022/05/07 09:39:33;;;;;;;12.65;7.82;;;23.70;17.20;;;;;;4986792;28;20340;-68
2022/05/07 09:42:01;;;;;;;9.32;7.75;;;23.90;17.60;;;;;;4963153;28;20198;-67
2022/05/07 09:44:28;;;;;;;12.82;8.27;;;23.70;14.80;;;;;;4979790;28;20566;-67
2022/05/07 09:46:58;;;;;;;10.07;7.25;;;23.80;13.90;;;;;;4976140;28;20214;-68
2022/05/07 09:49:27;;;;;;;11.20;8.25;;;23.60;13.20;;;;;;4976116;28;20224;-67
2022/05/07 09:51:54;;;;;;;11.57;8.13;;;22.90;14.50;;;;;;4991300;28;20300;-67
2022/05/07 09:59:52;;;;;;;10.93;8.02;;;23.00;17.10;;;;;;4987381;28;20254;-67
2022/05/07 10:02:59;;;;;;;11.13;8.25;;;23.00;17.60;;;;;;4993632;28;20279;-67
2022/05/07 10:05:52;;;;;;;11.05;7.88;;;22.40;16.50;;;;;;4995451;28;20236;-67
2022/05/07 10:08:39;;;;;;;11.63;8.40;;;22.20;18.30;;;;;;4994505;28;20201;-67
2022/05/07 10:11:08;;;;;;;11.18;7.88;;;21.80;18.80;;;;;;4994672;28;20259;-67
2022/05/07 10:13:35;;;;;;;10.48;7.78;;;22.10;18.00;;;;;;4994643;28;20635;-67
2022/05/07 10:16:03;;;;;;;10.32;8.20;;;22.30;19.90;;;;;;4988515;28;20206;-67
2022/05/07 10:18:41;;;;;;;15.13;7.32;;;22.60;17.30;;;;;;4995092;28;20201;-67
2022/05/07 10:21:13;;;;;;;10.32;7.35;;;22.90;17.30;;;;;;4993827;28;20654;-67
2022/05/07 10:23:49;;;;;;;12.43;7.85;;;22.40;19.10;;;;;;4993560;28;20557;-67
2022/05/07 10:26:17;;;;;;;11.10;8.35;;;22.00;20.40;;;;;;4993928;28;20225;-67
2022/05/07 10:28:44;;;;;;;11.02;7.68;;;22.50;19.70;;;;;;4993779;28;20698;-67
2022/05/07 10:31:20;;;;;;;10.43;7.50;;;22.70;17.20;;;;;;4988574;28;20543;-67
2022/05/07 10:33:49;;;;;;;8.43;6.85;;;23.30;18.60;;;;;;4991911;28;20213;-67
2022/05/07 10:36:17;;;;;;;11.10;8.13;;;23.40;15.10;;;;;;4988605;28;20200;-68
2022/05/07 10:38:46;;;;;;;11.27;7.60;;;22.60;17.80;;;;;;5000056;28;20244;-67
2022/05/07 10:41:24;;;;;;;13.75;8.50;;;22.40;16.50;;;;;;4994837;28;20692;-67
2022/05/07 10:44:04;;;;;;;11.38;8.63;;;22.20;18.00;;;;;;4980320;28;20299;-68
2022/05/07 10:46:48;;;;;;;10.95;8.43;;;22.00;19.40;;;;;;5000409;28;20299;-67
2022/05/07 10:49:18;;;;;;;11.35;8.10;;;21.80;19.60;;;;;;4991528;28;20648;-68
2022/05/07 10:51:51;;;;;;;12.23;8.18;;;22.10;20.30;;;;;;4992070;28;20240;-67
2022/05/07 10:54:21;;;;;;;13.02;8.02;;;22.50;18.40;;;;;;4993771;28;20248;-67
2022/05/07 10:56:50;;;;;;;12.38;8.32;;;22.70;18.10;;;;;;4990639;28;20205;-67
2022/05/07 10:59:17;;;;;;;13.10;7.88;;;23.20;16.20;;;;;;4993324;28;20668;-67
2022/05/07 11:01:45;;;;;;;11.48;8.32;;;23.20;17.30;;;;;;4993019;28;20197;-67
2022/05/07 11:04:13;;;;;;;12.43;8.05;;;23.20;14.20;;;;;;4992386;28;20197;-72
2022/05/07 11:06:49;;;;;;;11.48;7.82;;;23.40;12.90;;;;;;4994055;28;20237;-72
2022/05/07 11:09:17;;;;;;;9.77;7.55;;;23.00;13.80;;;;;;4990474;28;20235;-73
2022/05/07 11:11:46;;;;;;;11.60;7.80;;;24.00;13.10;;;;;;4985717;28;20850;-73
2022/05/07 11:14:22;;;;;;;10.40;7.28;;;24.00;12.20;;;;;;4987488;28;20301;-72
2022/05/07 11:16:49;;;;;;;10.40;6.90;;;24.70;11.60;;;;;;4995057;28;20614;-72
2022/05/07 11:19:25;;;;;;;11.98;8.07;;;24.70;9.70;;;;;;4991635;28;20243;-73
2022/05/07 11:21:54;;;;;;;10.75;6.45;;;24.60;7.00;;;;;;4985604;28;20566;-74
2022/05/07 11:24:21;;;;;;;13.13;8.20;;;24.90;8.20;;;;;;4989193;28;20205;-73
2022/05/07 11:26:52;;;;;;;10.38;8.18;;;24.50;6.10;;;;;;4981706;28;20661;-73
2022/05/07 11:29:20;;;;;;;8.32;7.30;;;24.70;6.60;;;;;;4992152;28;20299;-73
2022/05/07 11:31:55;;;;;;;9.02;7.50;;;25.40;6.50;;;;;;4991592;28;20208;-72
2022/05/07 11:34:31;;;;;;;9.98;6.63;;;24.80;6.30;;;;;;4992784;28;20201;-73
2022/05/07 11:37:10;;;;;;;10.82;7.35;;;24.80;6.30;;;;;;4993318;28;20205;-72
2022/05/07 11:39:48;;;;;;;11.85;8.32;;;24.80;6.20;;;;;;4992197;28;20581;-72
2022/05/07 11:42:26;;;;;;;11.00;6.78;;;23.90;6.90;;;;;;4993875;28;20201;-73
2022/05/07 11:47:38;;;;;;;9.82;6.90;;;23.00;9.70;;;;;;4992605;28;20597;-73
2022/05/07 11:50:06;;;;;;;10.50;6.50;;;23.30;9.50;;;;;;4992067;28;20243;-73
2022/05/07 11:52:35;;;;;;;10.45;6.63;;;23.80;8.40;;;;;;4993353;28;20205;-73
2022/05/07 11:55:07;;;;;;;9.80;6.43;;;24.30;6.90;;;;;;4992676;28;20203;-73
2022/05/07 11:57:35;;;;;;;9.07;6.75;;;24.50;5.50;;;;;;4992791;28;20201;-72
2022/05/07 12:00:19;;;;;;;6.60;5.95;;;23.40;5.60;;;;;;4992287;28;20899;-72
2022/05/07 12:02:50;;;;;;;10.27;7.70;;;23.80;6.00;;;;;;4991867;28;20213;-73
2022/05/07 12:05:18;;;;;;;8.82;6.00;;;24.00;6.60;;;;;;4992703;28;20754;-73
2022/05/07 12:07:49;;;;;;;9.35;6.63;;;24.50;6.40;;;;;;4991617;28;20217;-73
2022/05/07 12:10:18;;;;;;;11.73;8.35;;;24.30;9.40;;;;;;4991780;28;20205;-72
2022/05/07 12:12:45;;;;;;;9.88;6.70;;;23.60;6.20;;;;;;4993512;28;20205;-73
2022/05/07 12:15:12;;;;;;;13.18;6.35;;;24.00;4.50;;;;;;4987331;28;20264;-73
2022/05/07 12:17:54;;;;;;;8.15;5.88;;;24.20;6.70;;;;;;4993291;28;20201;-73
2022/05/07 12:20:23;;;;;;;8.00;6.35;;;24.50;2.00;;;;;;4975936;28;20680;-73
2022/05/07 12:31:07;;;;;;;8.25;6.30;;;24.10;5.40;;;;;;4991371;28;20677;-73
2022/05/07 12:33:36;;;;;;;10.25;6.95;;;23.80;2.90;;;;;;4990767;28;20209;-73
2022/05/07 12:36:04;;;;;;;9.52;6.25;;;23.70;1.00;;;;;;4991905;28;20284;-73
2022/05/07 12:38:32;;;;;;;6.18;5.55;;;23.60;3.40;;;;;;4991333;28;20205;-72
2022/05/07 12:40:59;;;;;;;8.20;5.68;;;24.20;2.30;;;;;;4991113;28;20271;-73
2022/05/07 12:43:26;;;;;;;8.18;5.57;;;23.80;1.90;;;;;;4991443;28;20240;-73
2022/05/07 12:45:53;;;;;;;9.88;5.88;;;24.00;2.70;;;;;;4992148;28;20232;-72
2022/05/07 12:48:20;;;;;;;8.68;5.53;;;23.80;2.80;;;;;;4989539;28;20228;-72
2022/05/07 12:50:48;;;;;;;6.75;5.25;;;24.40;2.40;;;;;;4991185;28;20706;-73
2022/05/07 12:53:15;;;;;;;8.27;5.63;;;25.10;1.00;;;;;;4989617;28;20197;-73
2022/05/07 12:55:45;;;;;;;7.25;5.65;;;24.90;1.00;;;;;;4991234;28;20281;-73
2022/05/07 12:58:12;;;;;;;8.95;5.85;;;25.10;1.00;;;;;;4991497;28;20209;-73
2022/05/07 13:00:40;;;;;;;10.32;5.50;;;25.10;1.00;;;;;;4990240;28;20205;-73
2022/05/07 13:03:08;;;;;;;7.15;5.35;;;25.30;1.00;;;;;;4991802;28;20232;-72
2022/05/07 13:05:35;;;;;;;8.48;5.68;;;25.30;1.00;;;;;;4992158;28;20247;-73
2022/05/07 13:08:03;;;;;;;8.63;5.38;;;24.80;1.00;;;;;;4970689;28;20198;-73
2022/05/07 13:10:31;;;;;;;5.72;4.72;;;24.10;1.00;;;;;;4990610;28;20291;-72
2022/05/07 13:13:00;;;;;;;7.80;6.22;;;24.20;1.00;;;;;;4991357;28;20205;-72
2022/05/07 13:15:28;;;;;;;9.65;6.25;;;24.10;1.00;;;;;;4991602;28;20212;-73
2022/05/07 13:17:56;;;;;;;10.05;4.97;;;23.60;1.00;;;;;;4991787;28;20296;-73
2022/05/07 13:20:24;;;;;;;6.50;4.43;;;23.70;1.00;;;;;;4986533;28;20203;-73
2022/05/07 13:22:52;;;;;;;6.95;4.85;;;24.00;1.00;;;;;;5004809;28;20643;-73
2022/05/07 13:25:19;;;;;;;6.78;4.18;;;23.50;1.00;;;;;;4992729;28;20209;-73
2022/05/07 13:27:47;;;;;;;6.55;4.50;;;23.80;1.00;;;;;;4990892;28;20224;-73
2022/05/07 13:30:17;;;;;;;7.38;4.70;;;23.50;1.00;;;;;;4990544;28;20248;-73
2022/05/07 13:32:44;;;;;;;7.05;4.80;;;24.00;1.00;;;;;;4990852;28;20208;-72